Time;durP1;ratioP1;P1;durP2;ratioP2;P2;SDS_P1;SDS_P2;PMS_P1;PMS_P2;Temp;Humidity;BMP_temperature;BMP_pressure;BME280_temperature;BME280_humidity;BME280_pressure;Samples;Min_cycle;Max_cycle;Signal;HPM_P1;HPM_P2
2022/03/06 00:02:20;;;;;;;41.95;22.77;;;;;;;-144.47;100.00;61586.06;5042887;28;20037;-77
2022/03/06 00:04:45;;;;;;;39.63;24.33;;;;;;;-144.47;100.00;61586.06;5044038;28;20064;-77
2022/03/06 00:07:11;;;;;;;36.28;22.35;;;;;;;-144.47;100.00;61586.06;5042110;28;20355;-76
2022/03/06 00:09:36;;;;;;;36.92;23.42;;;;;;;-144.47;100.00;61586.06;5044848;28;20530;-76
2022/03/06 00:12:02;;;;;;;39.45;23.52;;;;;;;-144.47;100.00;61586.06;5041598;28;20037;-76
2022/03/06 00:14:28;;;;;;;43.83;24.65;;;;;;;-144.47;100.00;61586.06;5045029;28;20373;-74
2022/03/06 00:16:53;;;;;;;40.78;24.90;;;;;;;-144.47;100.00;61586.06;5059058;28;20029;-76
2022/03/06 00:19:20;;;;;;;40.55;24.42;;;;;;;-144.47;100.00;61586.06;5051046;28;20045;-76
2022/03/06 00:21:46;;;;;;;40.70;23.77;;;;;;;-144.47;100.00;61586.06;5046686;28;20493;-76
2022/03/06 00:24:12;;;;;;;43.90;24.92;;;;;;;-144.47;100.00;61586.06;5042342;28;20037;-75
2022/03/06 00:26:37;;;;;;;39.35;23.70;;;;;;;-144.47;100.00;61586.06;5044918;28;20085;-76
2022/03/06 00:29:03;;;;;;;41.72;23.80;;;;;;;-144.47;100.00;61586.06;5041177;28;20037;-77
2022/03/06 00:31:29;;;;;;;45.75;24.83;;;;;;;-144.47;100.00;61586.06;5044441;28;20039;-77
2022/03/06 00:33:55;;;;;;;45.10;24.92;;;;;;;-144.47;100.00;61586.06;5041833;28;20075;-76
2022/03/06 00:36:21;;;;;;;39.60;23.20;;;;;;;-144.47;100.00;61586.06;5043291;28;20064;-76
2022/03/06 00:38:47;;;;;;;43.28;23.88;;;;;;;-144.47;100.00;61586.06;5043571;28;20037;-76
2022/03/06 00:41:14;;;;;;;37.60;22.58;;;;;;;-144.47;100.00;61586.06;5041862;28;20072;-76
2022/03/06 00:43:39;;;;;;;39.92;24.25;;;;;;;-144.47;100.00;61586.06;5043772;28;20025;-75
2022/03/06 00:46:06;;;;;;;40.40;23.77;;;;;;;-144.47;100.00;61586.06;5040601;28;20137;-73
2022/03/06 00:48:33;;;;;;;40.22;24.67;;;;;;;-144.47;100.00;61586.06;5044204;28;20035;-77
2022/03/06 00:50:58;;;;;;;38.33;23.15;;;;;;;-144.47;100.00;61586.06;5040646;28;20116;-78
2022/03/06 00:53:24;;;;;;;41.22;24.10;;;;;;;-144.47;100.00;61586.06;5043185;28;20042;-78
2022/03/06 00:55:50;;;;;;;42.72;24.98;;;;;;;-144.47;100.00;61586.06;5042574;28;20071;-76
2022/03/06 00:58:17;;;;;;;45.33;24.63;;;;;;;-144.47;100.00;61586.06;5041760;28;20029;-76
2022/03/06 01:00:46;;;;;;;41.95;24.08;;;;;;;-144.47;100.00;61586.06;5042357;28;20039;-76
2022/03/06 01:03:13;;;;;;;43.25;24.67;;;;;;;-144.47;100.00;61586.06;5040591;28;20037;-78
2022/03/06 01:05:40;;;;;;;37.47;23.25;;;;;;;-144.47;100.00;61586.06;5043298;28;20083;-77
2022/03/06 01:08:07;;;;;;;38.17;23.30;;;;;;;-144.47;100.00;61586.06;5038931;28;20394;-77
2022/03/06 01:10:35;;;;;;;42.25;23.85;;;;;;;-144.47;100.00;61586.06;5044075;28;20040;-76
2022/03/06 01:13:01;;;;;;;39.33;23.13;;;;;;;-144.47;100.00;61586.06;5040242;28;20041;-75
2022/03/06 01:15:27;;;;;;;40.00;23.77;;;;;;;-144.47;100.00;61586.06;5044857;28;20477;-74
2022/03/06 01:17:52;;;;;;;40.90;23.85;;;;;;;-144.47;100.00;61586.06;5044192;28;20119;-76
2022/03/06 01:20:19;;;;;;;43.55;24.42;;;;;;;-144.47;100.00;61586.06;5042117;28;20034;-76
2022/03/06 01:22:46;;;;;;;42.42;23.65;;;;;;;-144.47;100.00;61586.06;5046064;28;20032;-74
2022/03/06 01:25:12;;;;;;;44.03;24.48;;;;;;;-144.47;100.00;61586.06;5043013;28;20029;-77
2022/03/06 01:27:38;;;;;;;45.58;24.30;;;;;;;-144.47;100.00;61586.06;5044533;28;20033;-77
2022/03/06 01:30:06;;;;;;;40.00;24.30;;;;;;;-144.47;100.00;61586.06;5045541;28;20385;-77
2022/03/06 01:32:33;;;;;;;40.72;24.40;;;;;;;-144.47;100.00;61586.06;5041752;28;20105;-77
2022/03/06 01:34:59;;;;;;;41.78;24.48;;;;;;;-144.47;100.00;61586.06;5044730;28;20036;-77
2022/03/06 01:37:24;;;;;;;38.22;23.20;;;;;;;-144.47;100.00;61586.06;5043286;28;20024;-77
2022/03/06 01:39:50;;;;;;;42.28;24.05;;;;;;;-144.47;100.00;61586.06;5044058;28;20493;-77
2022/03/06 01:42:16;;;;;;;41.58;24.95;;;;;;;-144.47;100.00;61586.06;5040944;28;20033;-76
2022/03/06 01:44:45;;;;;;;37.28;24.15;;;;;;;-144.47;100.00;61586.06;5044915;28;20036;-76
2022/03/06 01:47:10;;;;;;;40.22;24.08;;;;;;;-144.47;100.00;61586.06;5042324;28;20055;-77
2022/03/06 01:49:36;;;;;;;38.92;23.98;;;;;;;-144.47;100.00;61586.06;5042854;28;20025;-77
2022/03/06 01:52:02;;;;;;;40.20;23.88;;;;;;;-144.47;100.00;61586.06;5037671;28;20504;-77
2022/03/06 01:54:27;;;;;;;39.40;23.77;;;;;;;-144.47;100.00;61586.06;5040622;28;20037;-76
2022/03/06 01:56:53;;;;;;;42.55;23.90;;;;;;;-144.47;100.00;61586.06;5039323;28;20033;-76
2022/03/06 01:59:18;;;;;;;38.15;23.95;;;;;;;-144.47;100.00;61586.06;5038997;28;20036;-76
2022/03/06 02:01:44;;;;;;;35.30;23.45;;;;;;;-144.47;100.00;61586.06;5039622;28;20040;-77
2022/03/06 02:04:09;;;;;;;43.28;23.67;;;;;;;-144.47;100.00;61586.06;5042135;28;20033;-77
2022/03/06 02:06:37;;;;;;;40.88;24.10;;;;;;;-144.47;100.00;61586.06;5039483;28;20043;-77
2022/03/06 02:09:03;;;;;;;39.55;22.55;;;;;;;-144.47;100.00;61586.06;5039403;28;20124;-76
2022/03/06 02:11:29;;;;;;;39.13;23.60;;;;;;;-144.47;100.00;61586.06;5042605;28;20048;-77
2022/03/06 02:13:55;;;;;;;41.08;23.67;;;;;;;-144.47;100.00;61586.06;5040413;28;20086;-76
2022/03/06 02:16:20;;;;;;;35.45;20.98;;;;;;;-144.47;100.00;61586.06;5041205;28;20033;-75
2022/03/06 02:18:46;;;;;;;42.17;23.75;;;;;;;-144.47;100.00;61586.06;5044093;28;20040;-77
2022/03/06 02:21:13;;;;;;;38.22;22.45;;;;;;;-144.47;100.00;61586.06;5038463;28;20037;-76
2022/03/06 02:23:39;;;;;;;39.65;22.90;;;;;;;-144.47;100.00;61586.06;5043571;28;20326;-78
2022/03/06 02:26:07;;;;;;;38.08;22.65;;;;;;;-144.47;100.00;61586.06;5043018;28;20040;-76
2022/03/06 02:28:34;;;;;;;38.97;23.33;;;;;;;-144.47;100.00;61586.06;5043597;28;20026;-76
2022/03/06 02:31:00;;;;;;;42.95;23.55;;;;;;;-144.47;100.00;61586.06;5053702;28;20061;-77
2022/03/06 02:33:26;;;;;;;39.33;23.77;;;;;;;-144.47;100.00;61586.06;5050324;28;20048;-77
2022/03/06 02:35:52;;;;;;;37.70;23.23;;;;;;;-144.47;100.00;61586.06;5052281;28;20033;-76
2022/03/06 02:38:19;;;;;;;35.50;22.13;;;;;;;-144.47;100.00;61586.06;5056938;28;20120;-77
2022/03/06 02:40:45;;;;;;;42.45;23.25;;;;;;;-144.47;100.00;61586.06;5045554;28;20033;-76
2022/03/06 02:43:14;;;;;;;40.20;22.83;;;;;;;-144.47;100.00;61586.06;5039267;28;20120;-77
2022/03/06 02:45:40;;;;;;;39.20;23.30;;;;;;;-144.47;100.00;61586.06;5040649;28;20401;-76
2022/03/06 02:48:07;;;;;;;39.53;23.30;;;;;;;-144.47;100.00;61586.06;5041083;28;20044;-77
2022/03/06 02:50:36;;;;;;;41.17;23.85;;;;;;;-144.47;100.00;61586.06;5038767;28;20033;-77
2022/03/06 02:53:05;;;;;;;40.90;23.98;;;;;;;-144.47;100.00;61586.06;5038649;28;20026;-75
2022/03/06 02:55:30;;;;;;;40.85;24.13;;;;;;;-144.47;100.00;61586.06;5042599;28;20029;-75
2022/03/06 02:57:56;;;;;;;42.97;24.70;;;;;;;-144.47;100.00;61586.06;5040546;28;20335;-76
2022/03/06 03:00:23;;;;;;;38.97;25.15;;;;;;;-144.47;100.00;61586.06;5037527;28;20113;-76
2022/03/06 03:02:50;;;;;;;42.55;24.65;;;;;;;-144.47;100.00;61586.06;5038500;28;20094;-77
2022/03/06 03:05:17;;;;;;;42.63;23.75;;;;;;;-144.47;100.00;61586.06;5038188;28;20037;-78
2022/03/06 03:07:45;;;;;;;41.15;24.38;;;;;;;-144.47;100.00;61586.06;5039860;28;20071;-76
2022/03/06 03:10:13;;;;;;;39.45;23.90;;;;;;;-144.47;100.00;61586.06;5042752;28;20480;-75
2022/03/06 03:12:39;;;;;;;39.20;24.88;;;;;;;-144.47;100.00;61586.06;5040576;28;20033;-76
2022/03/06 03:15:06;;;;;;;43.65;24.60;;;;;;;-144.47;100.00;61586.06;5043769;28;20028;-76
2022/03/06 03:17:31;;;;;;;41.88;24.00;;;;;;;-144.47;100.00;61586.06;5043387;28;20449;-77
2022/03/06 03:19:57;;;;;;;35.70;23.13;;;;;;;-144.47;100.00;61586.06;5040034;28;20022;-77
2022/03/06 03:22:22;;;;;;;38.55;23.50;;;;;;;-144.47;100.00;61586.06;5039264;28;20100;-77
2022/03/06 03:24:48;;;;;;;45.63;24.50;;;;;;;-144.47;100.00;61586.06;5047809;28;20025;-77
2022/03/06 03:27:14;;;;;;;42.80;25.55;;;;;;;-144.47;100.00;61586.06;5054359;28;20377;-76
2022/03/06 03:29:39;;;;;;;38.53;23.63;;;;;;;-144.47;100.00;61586.06;5054733;28;20521;-77
2022/03/06 03:32:05;;;;;;;45.33;25.00;;;;;;;-144.47;100.00;61586.06;5050080;28;20033;-77
2022/03/06 03:34:31;;;;;;;37.10;22.63;;;;;;;-144.47;100.00;61586.06;5048561;28;20124;-76
2022/03/06 03:36:56;;;;;;;39.35;24.17;;;;;;;-144.47;100.00;61586.06;5047759;28;20059;-78
2022/03/06 03:39:22;;;;;;;41.28;24.40;;;;;;;-144.47;100.00;61586.06;5043918;28;20137;-76
2022/03/06 03:41:47;;;;;;;39.20;23.48;;;;;;;-144.47;100.00;61586.06;5044181;28;20504;-76
2022/03/06 03:44:13;;;;;;;39.88;23.33;;;;;;;-144.47;100.00;61586.06;5044581;28;20033;-77
2022/03/06 03:46:38;;;;;;;38.65;22.88;;;;;;;-144.47;100.00;61586.06;5042694;28;20393;-77
2022/03/06 03:49:03;;;;;;;39.90;23.90;;;;;;;-144.47;100.00;61586.06;5044390;28;20040;-77
2022/03/06 03:51:29;;;;;;;39.58;23.30;;;;;;;-144.47;100.00;61586.06;5045036;28;20104;-77
2022/03/06 03:53:54;;;;;;;39.22;25.05;;;;;;;-144.47;100.00;61586.06;5042715;28;20128;-77
2022/03/06 03:56:21;;;;;;;36.55;23.75;;;;;;;-144.47;100.00;61586.06;5043781;28;20049;-76
2022/03/06 03:58:47;;;;;;;42.88;24.45;;;;;;;-144.47;100.00;61586.06;5043802;28;20116;-74
2022/03/06 04:01:13;;;;;;;37.78;23.45;;;;;;;-144.47;100.00;61586.06;5042252;28;20103;-76
2022/03/06 04:03:38;;;;;;;43.40;25.60;;;;;;;-144.47;100.00;61586.06;5041241;28;20124;-76
2022/03/06 04:06:04;;;;;;;43.47;25.77;;;;;;;-144.47;100.00;61586.06;5045205;28;20797;-77
2022/03/06 04:08:30;;;;;;;41.30;25.08;;;;;;;-144.47;100.00;61586.06;5041956;28;20032;-76
2022/03/06 04:10:59;;;;;;;42.00;25.65;;;;;;;-144.47;100.00;61586.06;5042551;28;20061;-77
2022/03/06 04:13:25;;;;;;;45.35;25.77;;;;;;;-144.47;100.00;61586.06;5042462;28;20453;-77
2022/03/06 04:15:51;;;;;;;42.30;25.08;;;;;;;-144.47;100.00;61586.06;5043535;28;20034;-76
2022/03/06 04:18:16;;;;;;;46.17;25.10;;;;;;;-144.47;100.00;61586.06;5044390;28;20033;-76
2022/03/06 04:20:42;;;;;;;44.35;25.88;;;;;;;-144.47;100.00;61586.06;5044072;28;20154;-76
2022/03/06 04:23:08;;;;;;;44.20;25.42;;;;;;;-144.47;100.00;61586.06;5041464;28;20060;-76
2022/03/06 04:25:34;;;;;;;47.55;26.45;;;;;;;-144.47;100.00;61586.06;5044794;28;20067;-77
2022/03/06 04:27:59;;;;;;;45.90;26.40;;;;;;;-144.47;100.00;61586.06;5041443;28;20381;-77
2022/03/06 04:30:25;;;;;;;46.60;26.75;;;;;;;-144.47;100.00;61586.06;5043645;28;20044;-77
2022/03/06 04:32:51;;;;;;;47.47;25.58;;;;;;;-144.47;100.00;61586.06;5042420;28;20101;-77
2022/03/06 04:35:16;;;;;;;48.65;26.90;;;;;;;-144.47;100.00;61586.06;5041185;28;20049;-76
2022/03/06 04:37:42;;;;;;;44.47;26.33;;;;;;;-144.47;100.00;61586.06;5043976;28;20036;-76
2022/03/06 04:40:09;;;;;;;46.53;26.70;;;;;;;-144.47;100.00;61586.06;5041658;28;20041;-76
2022/03/06 04:42:35;;;;;;;41.95;25.70;;;;;;;-144.47;100.00;61586.06;5045105;28;20127;-76
2022/03/06 04:45:00;;;;;;;45.45;25.83;;;;;;;-144.47;100.00;61586.06;5041061;28;20030;-77
2022/03/06 04:47:26;;;;;;;48.50;25.42;;;;;;;-144.47;100.00;61586.06;5065335;22;20040;-73
2022/03/06 04:49:51;;;;;;;45.10;26.48;;;;;;;-144.47;100.00;61586.06;5021429;28;20092;-76
2022/03/06 04:52:17;;;;;;;44.15;24.70;;;;;;;-144.47;100.00;61586.06;5020917;28;20400;-76
2022/03/06 04:54:42;;;;;;;43.38;24.40;;;;;;;-144.47;100.00;61586.06;5018980;28;20041;-76
2022/03/06 04:57:08;;;;;;;43.88;25.08;;;;;;;-144.47;100.00;61586.06;5022553;28;20060;-76
2022/03/06 04:59:33;;;;;;;40.13;24.98;;;;;;;-144.47;100.00;61586.06;5019919;28;20038;-76
2022/03/06 05:01:59;;;;;;;39.80;24.98;;;;;;;-144.47;100.00;61586.06;5022381;28;20026;-76
2022/03/06 05:04:24;;;;;;;40.70;24.05;;;;;;;-144.47;100.00;61586.06;5020100;28;20040;-74
2022/03/06 05:06:50;;;;;;;41.60;23.88;;;;;;;-144.47;100.00;61586.06;5021311;28;20101;-77
2022/03/06 05:09:15;;;;;;;48.80;24.98;;;;;;;-144.47;100.00;61586.06;5021211;28;20097;-76
2022/03/06 05:11:42;;;;;;;43.60;25.02;;;;;;;-144.47;100.00;61586.06;5020191;28;20077;-74
2022/03/06 05:14:08;;;;;;;40.78;23.48;;;;;;;-144.47;100.00;61586.06;5022237;28;20041;-76
2022/03/06 05:16:34;;;;;;;42.25;25.02;;;;;;;-144.47;100.00;61586.06;5019372;28;20045;-75
2022/03/06 05:19:00;;;;;;;39.78;24.08;;;;;;;-144.47;100.00;61586.06;5021975;28;20033;-77
2022/03/06 05:21:26;;;;;;;42.13;24.35;;;;;;;-144.47;100.00;61586.06;5019913;28;20049;-74
2022/03/06 05:23:51;;;;;;;42.83;24.70;;;;;;;-144.47;100.00;61586.06;5021602;28;20437;-77
2022/03/06 05:26:17;;;;;;;40.15;24.38;;;;;;;-144.47;100.00;61586.06;5019851;28;20033;-76
2022/03/06 05:28:43;;;;;;;41.58;23.00;;;;;;;-144.47;100.00;61586.06;5020635;28;20041;-75
2022/03/06 05:31:09;;;;;;;38.00;24.25;;;;;;;-144.47;100.00;61586.06;5022231;28;20045;-76
2022/03/06 05:33:34;;;;;;;37.88;23.17;;;;;;;-144.47;100.00;61586.06;5019187;28;20057;-77
2022/03/06 05:36:00;;;;;;;40.40;22.98;;;;;;;-144.47;100.00;61586.06;5022171;28;20043;-76
2022/03/06 05:38:26;;;;;;;39.47;22.60;;;;;;;-144.47;100.00;61586.06;5019772;28;20072;-76
2022/03/06 05:40:51;;;;;;;36.95;21.50;;;;;;;-144.47;100.00;61586.06;5021281;28;20041;-76
2022/03/06 05:43:17;;;;;;;40.33;23.33;;;;;;;-144.47;100.00;61586.06;5020985;28;20044;-77
2022/03/06 05:45:42;;;;;;;42.85;24.10;;;;;;;-144.47;100.00;61586.06;5019651;28;20030;-76
2022/03/06 05:48:08;;;;;;;44.13;23.77;;;;;;;-144.47;100.00;61586.06;5021556;28;20067;-76
2022/03/06 05:50:34;;;;;;;46.00;23.52;;;;;;;-144.47;100.00;61586.06;5018965;28;20092;-76
2022/03/06 05:53:00;;;;;;;42.40;23.75;;;;;;;-144.47;100.00;61586.06;5021848;28;20033;-76
2022/03/06 05:55:25;;;;;;;39.30;24.33;;;;;;;-144.47;100.00;61586.06;5019761;28;20040;-76
2022/03/06 05:57:51;;;;;;;36.97;22.67;;;;;;;-144.47;100.00;61586.06;5020868;28;20030;-75
2022/03/06 06:00:18;;;;;;;41.28;24.33;;;;;;;-144.47;100.00;61586.06;5020693;28;20470;-75
2022/03/06 06:02:44;;;;;;;38.42;22.42;;;;;;;-144.47;100.00;61586.06;5019740;28;20033;-75
2022/03/06 06:05:10;;;;;;;42.88;24.48;;;;;;;-144.47;100.00;61586.06;5021451;28;20036;-77
2022/03/06 06:07:36;;;;;;;42.30;24.25;;;;;;;-144.47;100.00;61586.06;5018481;28;20115;-76
2022/03/06 06:10:03;;;;;;;42.15;23.73;;;;;;;-144.47;100.00;61586.06;5012680;28;20038;-77
2022/03/06 06:12:29;;;;;;;43.90;24.45;;;;;;;-144.47;100.00;61586.06;5021762;28;20038;-75
2022/03/06 06:14:54;;;;;;;43.60;25.17;;;;;;;-144.47;100.00;61586.06;5019597;28;20029;-76
2022/03/06 06:17:21;;;;;;;43.13;24.77;;;;;;;-144.47;100.00;61586.06;5020189;28;20026;-76
2022/03/06 06:19:47;;;;;;;39.90;24.52;;;;;;;-144.47;100.00;61586.06;5019755;28;20050;-76
2022/03/06 06:22:12;;;;;;;41.78;24.60;;;;;;;-144.47;100.00;61586.06;5020786;28;20029;-77
2022/03/06 06:24:38;;;;;;;41.72;25.00;;;;;;;-144.47;100.00;61586.06;5018486;28;20030;-76
2022/03/06 06:27:03;;;;;;;38.92;23.17;;;;;;;-144.47;100.00;61586.06;5021421;28;20033;-75
2022/03/06 06:29:29;;;;;;;38.53;24.05;;;;;;;-144.47;100.00;61586.06;5018576;28;20026;-76
2022/03/06 06:31:55;;;;;;;41.15;23.98;;;;;;;-144.47;100.00;61586.06;5020970;28;20125;-76
2022/03/06 06:34:21;;;;;;;40.92;25.33;;;;;;;-144.47;100.00;61586.06;5018528;28;20430;-78
2022/03/06 06:36:48;;;;;;;40.10;24.27;;;;;;;-144.47;100.00;61586.06;5020018;28;20037;-77
2022/03/06 06:39:14;;;;;;;39.05;24.02;;;;;;;-144.47;100.00;61586.06;5019818;28;20108;-77
2022/03/06 06:41:41;;;;;;;39.95;23.58;;;;;;;-144.47;100.00;61586.06;5019120;28;20422;-75
2022/03/06 06:44:07;;;;;;;42.67;23.73;;;;;;;-144.47;100.00;61586.06;5021872;28;20087;-76
2022/03/06 06:46:34;;;;;;;40.35;24.05;;;;;;;-144.47;100.00;61586.06;5014523;28;20030;-73
2022/03/06 06:49:00;;;;;;;38.47;23.85;;;;;;;-144.47;100.00;61586.06;5020450;28;20398;-76
2022/03/06 06:51:30;;;;;;;44.13;24.25;;;;;;;-144.47;100.00;61586.06;5021172;28;20120;-75
2022/03/06 06:53:55;;;;;;;41.77;23.70;;;;;;;-144.47;100.00;61586.06;5019046;28;20034;-74
2022/03/06 06:56:21;;;;;;;40.55;23.85;;;;;;;-144.47;100.00;61586.06;5019528;28;20434;-75
2022/03/06 06:58:46;;;;;;;38.30;23.15;;;;;;;-144.47;100.00;61586.06;5020691;28;20034;-75
2022/03/06 07:01:12;;;;;;;39.28;24.23;;;;;;;-144.47;100.00;61586.06;5021467;28;20421;-77
2022/03/06 07:03:37;;;;;;;43.63;23.05;;;;;;;-144.47;100.00;61586.06;5018051;28;20132;-75
2022/03/06 07:06:03;;;;;;;36.88;22.35;;;;;;;-144.47;100.00;61586.06;5021667;28;20105;-76
2022/03/06 07:08:29;;;;;;;38.60;22.02;;;;;;;-144.47;100.00;61586.06;5018326;28;20049;-76
2022/03/06 07:10:54;;;;;;;32.40;20.95;;;;;;;-144.47;100.00;61586.06;5017197;28;20033;-74
2022/03/06 07:13:20;;;;;;;35.83;22.77;;;;;;;-144.47;100.00;61586.06;5018780;28;20151;-74
2022/03/06 07:15:45;;;;;;;35.67;22.13;;;;;;;-144.47;100.00;61586.06;5019608;28;20065;-75
2022/03/06 07:18:11;;;;;;;35.17;21.02;;;;;;;-144.47;100.00;61586.06;5017447;28;20053;-74
2022/03/06 07:20:36;;;;;;;36.10;22.00;;;;;;;-144.47;100.00;61586.06;5017737;28;20075;-76
2022/03/06 07:23:02;;;;;;;34.90;22.13;;;;;;;-144.47;100.00;61586.06;5021130;28;20135;-79
2022/03/06 07:25:28;;;;;;;35.03;20.98;;;;;;;-144.47;100.00;61586.06;5012477;28;20461;-77
2022/03/06 07:27:53;;;;;;;36.70;22.35;;;;;;;-144.47;100.00;61586.06;5018186;28;20478;-74
2022/03/06 07:30:19;;;;;;;41.92;22.88;;;;;;;-144.47;100.00;61586.06;5014073;28;20034;-74
2022/03/06 07:32:48;;;;;;;37.85;21.70;;;;;;;-144.47;100.00;61586.06;5019499;28;20496;-73
2022/03/06 07:35:15;;;;;;;37.15;22.08;;;;;;;-144.47;100.00;61586.06;5017252;28;20106;-73
2022/03/06 07:37:41;;;;;;;39.47;23.35;;;;;;;-144.47;100.00;61586.06;5016457;28;20061;-74
2022/03/06 07:40:08;;;;;;;37.75;23.25;;;;;;;-144.47;100.00;61586.06;5014731;28;20060;-75
2022/03/06 07:42:34;;;;;;;36.30;22.08;;;;;;;-144.47;100.00;61586.06;5019824;28;20029;-73
2022/03/06 07:45:00;;;;;;;36.05;22.38;;;;;;;-144.47;100.00;61586.06;5017203;28;20484;-73
2022/03/06 07:47:25;;;;;;;38.67;22.95;;;;;;;-144.47;100.00;61586.06;5020120;28;20038;-73
2022/03/06 07:49:51;;;;;;;35.20;21.95;;;;;;;-144.47;100.00;61586.06;5019005;28;20034;-75
2022/03/06 07:52:17;;;;;;;37.53;22.35;;;;;;;-144.47;100.00;61586.06;5017419;28;20053;-75
2022/03/06 07:54:42;;;;;;;34.53;21.75;;;;;;;-144.47;100.00;61586.06;5020281;28;20122;-75
2022/03/06 07:57:08;;;;;;;36.28;22.58;;;;;;;-144.47;100.00;61586.06;5016818;28;20393;-75
2022/03/06 07:59:34;;;;;;;34.22;20.67;;;;;;;-144.47;100.00;61586.06;5035933;28;20041;-75
2022/03/06 08:02:00;;;;;;;36.78;22.38;;;;;;;-144.47;100.00;61586.06;5015724;28;20025;-75
2022/03/06 08:04:26;;;;;;;35.53;22.67;;;;;;;-144.47;100.00;61586.06;5019898;28;20758;-75
2022/03/06 08:06:52;;;;;;;36.22;21.48;;;;;;;-144.47;100.00;61586.06;5018396;28;20030;-76
2022/03/06 08:09:17;;;;;;;31.83;20.70;;;;;;;-144.47;100.00;61586.06;5019328;28;20518;-74
2022/03/06 08:11:43;;;;;;;39.55;22.85;;;;;;;-144.47;100.00;61586.06;5022085;28;20439;-74
2022/03/06 08:14:08;;;;;;;40.78;23.13;;;;;;;-144.47;100.00;61586.06;5019863;28;20112;-74
2022/03/06 08:16:33;;;;;;;41.55;23.30;;;;;;;-144.47;100.00;61586.06;5023568;28;20061;-74
2022/03/06 08:18:59;;;;;;;34.47;22.45;;;;;;;-144.47;100.00;61586.06;5020520;28;20038;-75
2022/03/06 08:21:26;;;;;;;34.90;22.05;;;;;;;-144.47;100.00;61586.06;5023094;28;20107;-73
2022/03/06 08:23:52;;;;;;;36.28;22.42;;;;;;;-144.47;100.00;61586.06;5022586;28;20048;-76
2022/03/06 08:26:18;;;;;;;35.45;21.55;;;;;;;-144.47;100.00;61586.06;5022725;28;20118;-75
2022/03/06 08:28:44;;;;;;;31.60;20.58;;;;;;;-144.47;100.00;61586.06;5022267;28;20029;-76
2022/03/06 08:31:10;;;;;;;32.38;19.25;;;;;;;-144.47;100.00;61586.06;5019664;28;20025;-74
2022/03/06 08:33:36;;;;;;;34.35;19.50;;;;;;;-144.47;100.00;61586.06;5023499;28;20033;-76
2022/03/06 08:36:02;;;;;;;31.50;18.67;;;;;;;-144.47;100.00;61586.06;5019768;28;20425;-75
2022/03/06 08:38:27;;;;;;;31.95;18.58;;;;;;;-144.47;100.00;61586.06;5023179;28;20472;-74
2022/03/06 08:40:53;;;;;;;29.38;18.17;;;;;;;-144.47;100.00;61586.06;5021278;28;20037;-75
2022/03/06 08:43:18;;;;;;;30.20;18.70;;;;;;;-144.47;100.00;61586.06;5021164;28;20038;-75
2022/03/06 08:45:44;;;;;;;24.27;16.67;;;;;;;-144.47;100.00;61586.06;5020600;28;20037;-75
2022/03/06 08:48:09;;;;;;;24.90;16.38;;;;;;;-144.47;100.00;61586.06;5020024;28;20743;-76
2022/03/06 08:50:35;;;;;;;26.95;16.15;;;;;;;-144.47;100.00;61586.06;5023375;28;20037;-75
2022/03/06 08:53:01;;;;;;;27.67;15.93;;;;;;;-144.47;100.00;61586.06;5018732;28;20030;-75
2022/03/06 08:55:26;;;;;;;23.20;15.95;;;;;;;-144.47;100.00;61586.06;5022607;28;20698;-76
2022/03/06 08:57:52;;;;;;;29.33;16.98;;;;;;;-144.47;100.00;61586.06;5019960;28;20059;-74
2022/03/06 09:00:17;;;;;;;27.02;16.73;;;;;;;-144.47;100.00;61586.06;5020334;28;20478;-75
2022/03/06 09:02:46;;;;;;;24.45;16.35;;;;;;;-144.47;100.00;61586.06;5022262;28;20080;-74
2022/03/06 09:05:12;;;;;;;28.15;15.88;;;;;;;-144.47;100.00;61586.06;5020089;28;20060;-76
2022/03/06 09:07:37;;;;;;;24.92;15.77;;;;;;;-144.47;100.00;61586.06;5023167;28;20057;-74
2022/03/06 09:10:03;;;;;;;25.33;16.58;;;;;;;-144.47;100.00;61586.06;5019413;28;20456;-75
2022/03/06 09:12:29;;;;;;;26.23;16.27;;;;;;;-144.47;100.00;61586.06;5022717;28;20083;-74
2022/03/06 09:14:55;;;;;;;26.42;16.60;;;;;;;-144.47;100.00;61586.06;5020502;28;20394;-76
2022/03/06 09:17:21;;;;;;;27.30;17.30;;;;;;;-144.47;100.00;61586.06;5021178;28;20101;-75
2022/03/06 09:19:46;;;;;;;25.75;16.40;;;;;;;-144.47;100.00;61586.06;5021725;28;20041;-74
2022/03/06 09:22:12;;;;;;;23.70;16.40;;;;;;;-144.47;100.00;61586.06;5020089;28;20038;-76
2022/03/06 09:24:37;;;;;;;27.33;16.85;;;;;;;-144.47;100.00;61586.06;5024937;28;20035;-77
2022/03/06 09:27:03;;;;;;;24.73;15.85;;;;;;;-144.47;100.00;61586.06;5020464;28;20033;-76
2022/03/06 09:29:29;;;;;;;27.23;16.25;;;;;;;-144.47;100.00;61586.06;5022437;28;20104;-75
2022/03/06 09:31:54;;;;;;;26.42;15.57;;;;;;;-144.47;100.00;61586.06;5019479;28;20107;-75
2022/03/06 09:34:20;;;;;;;24.58;15.65;;;;;;;-144.47;100.00;61586.06;5020502;28;20093;-75
2022/03/06 09:36:46;;;;;;;27.75;16.45;;;;;;;-144.47;100.00;61586.06;5021320;28;20382;-77
2022/03/06 09:39:13;;;;;;;26.05;15.68;;;;;;;-144.47;100.00;61586.06;5019706;28;20025;-75
2022/03/06 09:41:39;;;;;;;23.20;17.25;;;;;;;-144.47;100.00;61586.06;5024396;28;20239;-73
2022/03/06 09:44:08;;;;;;;25.17;15.88;;;;;;;-144.47;100.00;61586.06;5020376;28;20222;-75
2022/03/06 09:46:35;;;;;;;22.92;15.27;;;;;;;-144.47;100.00;61586.06;5014689;28;20102;-76
2022/03/06 09:49:02;;;;;;;24.20;15.80;;;;;;;-144.47;100.00;61586.06;5020409;28;20037;-76
2022/03/06 09:51:33;;;;;;;27.25;16.10;;;;;;;-144.47;100.00;61586.06;5019170;28;20501;-76
2022/03/06 09:53:58;;;;;;;;;;;;;;;-144.47;100.00;61586.06;5021573;28;20393;-75
2022/03/06 09:56:23;;;;;;;26.58;15.32;;;;;;;-144.47;100.00;61586.06;5019599;28;19917;-75
2022/03/06 09:58:49;;;;;;;22.20;15.05;;;;;;;-144.47;100.00;61586.06;5020379;28;20443;-76
2022/03/06 10:01:15;;;;;;;24.42;15.20;;;;;;;-144.47;100.00;61586.06;5020443;28;20065;-76
2022/03/06 10:03:40;;;;;;;22.08;14.82;;;;;;;-144.47;100.00;61586.06;5018200;28;20030;-76
2022/03/06 10:06:07;;;;;;;23.67;15.27;;;;;;;-144.47;100.00;61586.06;5017928;28;20032;-76
2022/03/06 10:08:33;;;;;;;22.85;15.43;;;;;;;-144.47;100.00;61586.06;5014356;28;20040;-74
2022/03/06 10:11:04;;;;;;;24.17;15.02;;;;;;;-144.47;100.00;61586.06;5020859;28;20044;-74
2022/03/06 10:13:35;;;;;;;22.08;14.50;;;;;;;-144.47;100.00;61586.06;5018219;28;20026;-75
2022/03/06 10:16:01;;;;;;;;;;;;;;;-144.47;100.00;61586.06;5021305;28;20481;-75
2022/03/06 10:18:30;;;;;;;31.42;16.40;;;;;;;-144.47;100.00;61586.06;5018413;28;19921;-74
2022/03/06 10:21:09;;;;;;;21.65;14.98;;;;;;;-144.47;100.00;61586.06;5020260;28;20034;-76
2022/03/06 10:23:35;;;;;;;20.15;14.80;;;;;;;-144.47;100.00;61586.06;5014354;28;20034;-76
2022/03/06 10:26:13;;;;;;;22.33;14.32;;;;;;;-144.47;100.00;61586.06;5021159;28;20021;-75
2022/03/06 10:28:46;;;;;;;19.15;14.00;;;;;;;-144.47;100.00;61586.06;5015067;28;20482;-76
2022/03/06 10:31:12;;;;;;;23.40;15.57;;;;;;;-144.47;100.00;61586.06;5020203;28;20042;-76
2022/03/06 10:33:38;;;;;;;23.17;14.93;;;;;;;-144.47;100.00;61586.06;5017825;28;20025;-75
2022/03/06 10:36:07;;;;;;;21.70;14.68;;;;;;;-144.47;100.00;61586.06;5015375;28;20082;-76
2022/03/06 10:38:36;;;;;;;22.65;14.30;;;;;;;-144.47;100.00;61586.06;5013766;28;20066;-76
2022/03/06 10:41:12;;;;;;;18.70;12.52;;;;;;;-144.47;100.00;61586.06;5017204;28;20033;-76
2022/03/06 10:43:38;;;;;;;17.90;12.27;;;;;;;-144.47;100.00;61586.06;5015679;28;20121;-75
2022/03/06 10:46:18;;;;;;;19.70;12.00;;;;;;;-144.47;100.00;61586.06;5022167;28;20041;-76
2022/03/06 10:49:08;;;;;;;18.13;12.88;;;;;;;-144.47;100.00;61586.06;5018211;28;20046;-78
2022/03/06 10:51:45;;;;;;;19.58;13.15;;;;;;;-144.47;100.00;61586.06;5013523;28;20104;-77